Wickford, Rhode Island
Current Conditions -  °F | °C
As of 6:53 PM on Friday 24 Oct 2014 (Local Time) from KUUU Reporting Station
Overcast Overcast  
Wind Chill: 54°   Ceiling: 3300
Heat Index: 54°   Visibility: 10mi
Dew Point: 43°   Wind: 10mph
Humidity: 66%   Direction: 310°NW
Pressure: 29.74"   Gusts: NA
Location:  41.5873°N, 71.4626°W
Report Text: KUUU 242253Z AUTO 31009KT 10SM OVC033 12/06 A2974 RMK AO2 SLP068 T01220061
Loading
Personal Weather Stations






























Interactive Weather Map
Tropical Storm Tracking
New forecast layout! Learn more

10-Day Weather Forecast

Advertisements
Track Severe Weather on mobile